Terminal Aerodrome Forecast
Issued by NWS Wilmington, OH

Current Version | Previous Version | Graphics & Text | Print | Product List | Glossary On
Versions: 1 2 3 4 5 6 7 8 9 10 11 12 13 14 15 16 17 18 19 20 21 22 23 24 25 26
000
FTUS41 KILN 040300 AAB
TAFCMH
TAF AMD
KCMH 040331Z 0404/0424 28010KT P6SM -RA OVC015
     FM040800 28010KT P6SM -RA OVC015
      TEMPO 0411/0413 2SM -SN BR OVC008
     FM041300 33010KT 4SM BR OVC012
     FM042200 33012KT 1 1/2SM -SN BR OVC007=

USA.gov is the U.S. government's official web portal to all federal, state and local government web resources and services.